Time;durP1;ratioP1;P1;durP2;ratioP2;P2;SDS_P1;SDS_P2;PMS_P1;PMS_P2;Temp;Humidity;BMP_temperature;BMP_pressure;BME280_temperature;BME280_humidity;BME280_pressure;Samples;Min_cycle;Max_cycle;Signal;HPM_P1;HPM_P2
2022/11/06 00:00:52;;;;;;;6.40;5.73;;;7.00;1.00;;;;;;5089651;28;20437;-63
2022/11/06 00:03:19;;;;;;;6.00;5.37;;;7.00;1.00;;;;;;5091368;28;20447;-63
2022/11/06 00:08:32;;;;;;;7.67;6.83;;;7.60;1.00;;;;;;5089254;28;20567;-63
2022/11/06 00:10:58;;;;;;;8.90;6.10;;;;;;;;;;5089584;28;20456;-62
2022/11/06 00:13:24;;;;;;;9.17;5.97;;;;;;;;;;5087511;28;20479;-63
2022/11/06 00:15:50;;;;;;;7.63;6.70;;;;;;;;;;5086339;28;20460;-63
2022/11/06 00:18:16;;;;;;;7.70;6.10;;;7.00;1.00;;;;;;5089956;28;20445;-63
2022/11/06 00:20:42;;;;;;;12.43;6.37;;;7.00;1.00;;;;;;5087976;28;20944;-62
2022/11/06 00:23:07;;;;;;;8.47;6.10;;;7.00;1.00;;;;;;5089668;28;20237;-62
2022/11/06 00:25:33;;;;;;;12.00;6.70;;;7.00;1.00;;;;;;5091844;28;20205;-63
2022/11/06 00:27:59;;;;;;;10.43;6.77;;;7.10;1.00;;;;;;5087099;28;20192;-63
2022/11/06 00:30:24;;;;;;;8.17;7.13;;;7.10;1.00;;;;;;5087776;28;20554;-63
2022/11/06 00:32:50;;;;;;;7.90;6.30;;;7.10;1.00;;;;;;5088721;28;20206;-62
2022/11/06 00:35:15;;;;;;;9.43;6.10;;;7.10;1.00;;;;;;5090481;28;20200;-62
2022/11/06 00:37:41;;;;;;;10.43;7.07;;;7.00;1.00;;;;;;5089543;28;20810;-62
2022/11/06 00:40:07;;;;;;;12.17;8.47;;;;;;;;;;5089600;28;20182;-62
2022/11/06 00:42:33;;;;;;;9.03;7.60;;;6.80;1.00;;;;;;5089599;28;20196;-62
2022/11/06 00:44:59;;;;;;;8.10;6.70;;;;;;;;;;5092246;28;20430;-61
2022/11/06 00:47:25;;;;;;;7.03;6.03;;;;;;;;;;5086926;28;20965;-62
2022/11/06 00:49:50;;;;;;;7.93;6.20;;;6.80;1.00;;;;;;5082221;28;20985;-63
2022/11/06 00:52:16;;;;;;;7.40;5.87;;;;;;;;;;5086051;28;20456;-62
2022/11/06 00:54:42;;;;;;;8.47;6.70;;;6.70;1.00;;;;;;5089613;28;20221;-63
2022/11/06 00:57:07;;;;;;;6.70;6.00;;;6.70;1.00;;;;;;5090580;28;20471;-62
2022/11/06 00:59:33;;;;;;;6.60;5.93;;;6.70;1.00;;;;;;5088845;28;20193;-62
2022/11/06 01:01:58;;;;;;;6.20;5.27;;;6.60;1.00;;;;;;5089224;28;20190;-62
2022/11/06 01:04:24;;;;;;;6.93;6.07;;;6.60;1.00;;;;;;5087803;28;20197;-62
2022/11/06 01:06:53;;;;;;;7.27;5.60;;;6.60;1.00;;;;;;5088908;28;20223;-62
2022/11/06 01:09:21;;;;;;;7.70;6.33;;;6.60;1.00;;;;;;5087558;28;20189;-63
2022/11/06 01:11:50;;;;;;;6.13;5.50;;;6.50;1.00;;;;;;5089787;28;20466;-63
2022/11/06 01:14:17;;;;;;;9.00;7.30;;;6.50;1.00;;;;;;5090634;28;20420;-62
2022/11/06 01:16:44;;;;;;;7.40;6.20;;;;;;;;;;5089389;28;20439;-63
2022/11/06 01:19:14;;;;;;;6.67;5.80;;;6.50;1.00;;;;;;5083166;28;20448;-62
2022/11/06 01:21:42;;;;;;;8.70;6.13;;;6.60;1.00;;;;;;5085877;28;20911;-62
2022/11/06 01:24:14;;;;;;;7.07;6.33;;;6.60;1.00;;;;;;5085233;28;20458;-63
2022/11/06 01:26:40;;;;;;;8.03;6.67;;;6.60;1.00;;;;;;5086085;28;20474;-61
2022/11/06 01:29:09;;;;;;;7.33;5.93;;;6.50;1.00;;;;;;5085329;28;20556;-63
2022/11/06 01:31:35;;;;;;;6.60;5.93;;;6.50;1.00;;;;;;5088022;28;20543;-62
2022/11/06 01:34:02;;;;;;;6.80;6.10;;;6.60;1.00;;;;;;5088406;28;20561;-63
2022/11/06 01:36:27;;;;;;;9.20;6.00;;;6.50;1.00;;;;;;5089292;28;20417;-62
2022/11/06 01:38:58;;;;;;;7.80;6.10;;;6.60;1.00;;;;;;5085971;28;20512;-62
2022/11/06 01:41:27;;;;;;;7.07;6.00;;;6.60;1.00;;;;;;5090229;28;20410;-62
2022/11/06 01:43:54;;;;;;;7.13;6.10;;;6.50;1.00;;;;;;5085323;28;20455;-62
2022/11/06 01:46:23;;;;;;;6.93;6.23;;;6.50;1.00;;;;;;5087834;28;20454;-62
2022/11/06 01:49:04;;;;;;;10.07;6.70;;;6.50;1.00;;;;;;5085447;28;20450;-63
2022/11/06 01:51:52;;;;;;;8.57;6.23;;;6.40;1.00;;;;;;5085635;28;20447;-63
2022/11/06 01:54:20;;;;;;;8.85;7.10;;;6.50;1.00;;;;;;5050015;28;1066726;-62
2022/11/06 01:56:49;;;;;;;8.10;6.63;;;6.40;1.00;;;;;;5090908;28;20180;-62
2022/11/06 01:59:17;;;;;;;8.73;7.13;;;6.40;1.00;;;;;;5085504;28;21479;-63
2022/11/06 02:01:43;;;;;;;8.37;6.03;;;6.40;1.00;;;;;;5084358;28;20660;-63
2022/11/06 02:04:20;;;;;;;8.20;7.30;;;6.40;1.00;;;;;;5085265;28;20930;-62
2022/11/06 02:06:46;;;;;;;8.10;6.43;;;6.30;1.00;;;;;;5084538;28;20190;-62
2022/11/06 02:09:12;;;;;;;8.20;6.57;;;6.30;1.00;;;;;;5088145;28;20543;-63
2022/11/06 02:11:41;;;;;;;7.27;6.57;;;6.30;1.00;;;;;;5080277;28;20546;-62
2022/11/06 02:14:23;;;;;;;7.60;6.70;;;6.20;1.00;;;;;;5086827;28;20198;-63
2022/11/06 02:17:01;;;;;;;9.57;6.93;;;6.20;1.00;;;;;;5087110;28;20473;-62
2022/11/06 02:19:56;;;;;;;8.97;6.83;;;6.20;1.00;;;;;;5088601;28;20432;-62
2022/11/06 02:22:47;;;;;;;6.77;6.07;;;6.20;1.00;;;;;;5086809;28;20476;-62
2022/11/06 02:25:44;;;;;;;7.67;6.50;;;6.20;1.00;;;;;;5087687;28;20692;-62
2022/11/06 02:28:33;;;;;;;9.47;7.17;;;6.10;1.00;;;;;;5085346;28;20426;-62
2022/11/06 02:31:04;;;;;;;8.23;6.37;;;6.00;1.00;;;;;;5079616;28;20426;-62
2022/11/06 02:33:39;;;;;;;7.40;6.00;;;6.00;1.00;;;;;;5089630;28;20451;-62
2022/11/06 02:36:09;;;;;;;8.13;6.97;;;6.00;1.00;;;;;;5085481;28;20417;-61
2022/11/06 02:38:41;;;;;;;8.00;6.63;;;6.00;1.00;;;;;;5088859;28;20432;-63
2022/11/06 02:41:15;;;;;;;9.43;7.20;;;6.00;1.00;;;;;;5081968;28;21447;-63
2022/11/06 02:43:47;;;;;;;9.97;7.47;;;6.00;1.00;;;;;;5090386;28;20439;-62
2022/11/06 02:46:36;;;;;;;8.37;7.53;;;6.00;1.00;;;;;;5083872;28;20421;-62
2022/11/06 02:49:19;;;;;;;7.63;6.63;;;6.00;1.00;;;;;;5086937;28;20443;-62
2022/11/06 02:51:52;;;;;;;7.33;5.87;;;6.00;1.00;;;;;;5087865;28;20454;-62
2022/11/06 02:54:20;;;;;;;8.57;6.67;;;5.90;1.00;;;;;;5085321;28;20482;-62
2022/11/06 02:56:51;;;;;;;8.17;6.03;;;5.90;1.00;;;;;;5086776;28;20516;-62
2022/11/06 02:59:48;;;;;;;9.03;7.67;;;5.90;1.00;;;;;;5082414;28;20421;-62
2022/11/06 03:02:20;;;;;;;8.27;6.30;;;5.90;1.00;;;;;;5084171;28;20489;-62
2022/11/06 03:05:08;;;;;;;7.63;6.90;;;5.90;1.00;;;;;;5084678;28;20452;-63
2022/11/06 03:07:41;;;;;;;9.53;6.90;;;5.90;1.00;;;;;;5086616;28;20429;-63
2022/11/06 03:10:07;;;;;;;8.37;7.57;;;5.90;1.00;;;;;;5079858;28;20425;-62
2022/11/06 03:12:41;;;;;;;8.60;7.13;;;5.90;1.00;;;;;;5085654;28;20524;-62
2022/11/06 03:15:32;;;;;;;7.60;6.60;;;5.80;1.00;;;;;;5084977;28;20588;-62
2022/11/06 03:18:25;;;;;;;7.23;6.50;;;5.90;1.00;;;;;;5088262;28;20414;-62
2022/11/06 03:21:00;;;;;;;9.57;6.17;;;5.80;1.00;;;;;;5085629;28;20439;-62
2022/11/06 03:23:35;;;;;;;7.93;6.17;;;5.80;1.00;;;;;;5086688;28;20447;-63
2022/11/06 03:26:21;;;;;;;10.03;7.27;;;5.80;1.00;;;;;;5089509;28;20474;-62
2022/11/06 03:29:14;;;;;;;8.70;6.80;;;5.70;1.00;;;;;;5085799;28;21039;-62
2022/11/06 03:31:48;;;;;;;6.87;6.27;;;5.80;1.00;;;;;;5076268;28;20450;-62
2022/11/06 03:34:27;;;;;;;6.63;5.70;;;5.70;1.00;;;;;;5087414;28;20529;-63
2022/11/06 03:37:02;;;;;;;9.47;7.10;;;5.80;1.00;;;;;;5087479;28;20929;-63
2022/11/06 03:39:35;;;;;;;7.57;6.60;;;5.80;1.00;;;;;;5086099;28;20992;-63
2022/11/06 03:42:08;;;;;;;7.47;6.67;;;5.80;1.00;;;;;;5086988;28;21032;-63
2022/11/06 03:44:37;;;;;;;6.87;6.20;;;5.70;1.00;;;;;;5085528;28;20455;-62
2022/11/06 03:47:17;;;;;;;7.40;6.30;;;5.70;1.00;;;;;;5084869;28;20451;-63
2022/11/06 03:49:53;;;;;;;7.43;6.67;;;5.80;1.00;;;;;;5084359;28;20963;-62
2022/11/06 03:52:30;;;;;;;10.20;6.50;;;5.80;1.00;;;;;;5085581;28;20477;-62
2022/11/06 03:55:01;;;;;;;7.83;7.03;;;5.80;1.00;;;;;;5085714;28;20494;-62
2022/11/06 03:57:43;;;;;;;8.50;6.63;;;5.70;1.00;;;;;;5087384;28;20435;-63
2022/11/06 04:00:10;;;;;;;9.27;6.63;;;5.80;1.00;;;;;;5080877;28;20440;-62
2022/11/06 04:02:40;;;;;;;7.10;6.47;;;5.80;1.00;;;;;;5087066;28;20438;-62
2022/11/06 04:05:19;;;;;;;6.80;6.13;;;5.80;1.00;;;;;;5087705;28;20451;-63
2022/11/06 04:16:08;;;;;;;7.43;5.80;;;5.70;1.00;;;;;;5084782;28;20451;-62
2022/11/06 04:18:34;;;;;;;7.20;6.40;;;5.70;1.00;;;;;;5087299;28;20438;-63
2022/11/06 04:21:21;;;;;;;8.13;6.20;;;5.60;1.00;;;;;;5086029;28;20428;-63
2022/11/06 04:27:28;;;;;;;9.87;6.27;;;5.70;1.00;;;;;;5085142;28;20449;-62
2022/11/06 04:30:12;;;;;;;7.50;6.10;;;5.60;1.00;;;;;;5065575;28;20434;-63
2022/11/06 04:33:11;;;;;;;7.37;6.53;;;5.60;1.00;;;;;;5086868;28;20510;-63
2022/11/06 04:36:09;;;;;;;9.47;6.47;;;5.60;1.00;;;;;;5080467;28;20854;-62
2022/11/06 04:38:41;;;;;;;8.93;6.53;;;5.70;1.00;;;;;;5086497;28;21026;-62
2022/11/06 04:41:11;;;;;;;8.23;6.60;;;5.60;1.00;;;;;;5082591;28;20828;-62
2022/11/06 04:43:49;;;;;;;8.80;6.77;;;5.60;1.00;;;;;;5090325;28;20967;-62
2022/11/06 04:46:30;;;;;;;10.67;7.00;;;5.60;1.00;;;;;;5089445;28;20433;-62
2022/11/06 04:48:56;;;;;;;6.10;5.30;;;5.60;1.00;;;;;;5087885;28;20449;-62
2022/11/06 04:51:27;;;;;;;8.43;6.33;;;5.60;1.00;;;;;;5088270;28;20583;-62
2022/11/06 04:53:53;;;;;;;6.90;6.20;;;5.70;1.00;;;;;;5088111;28;20476;-62
2022/11/06 04:56:27;;;;;;;8.73;7.10;;;5.70;1.00;;;;;;5088072;28;21006;-63
2022/11/06 04:58:53;;;;;;;11.00;7.27;;;5.60;1.00;;;;;;5089439;28;20458;-62
2022/11/06 05:01:19;;;;;;;7.60;6.10;;;5.60;1.00;;;;;;5085481;28;20454;-62
2022/11/06 05:03:44;;;;;;;10.30;7.10;;;5.60;1.00;;;;;;5087691;28;20203;-62
2022/11/06 05:06:10;;;;;;;9.03;7.10;;;5.50;1.00;;;;;;5089542;28;20198;-62
2022/11/06 05:08:36;;;;;;;9.40;6.73;;;5.60;1.00;;;;;;5084155;28;20198;-62
2022/11/06 05:11:02;;;;;;;7.80;6.60;;;5.50;1.00;;;;;;5086027;28;20187;-62
2022/11/06 05:13:29;;;;;;;10.37;7.30;;;5.50;1.00;;;;;;5087645;28;20478;-62
2022/11/06 05:15:58;;;;;;;14.00;7.83;;;5.50;1.00;;;;;;5085706;28;20194;-63
2022/11/06 05:18:25;;;;;;;8.90;7.30;;;5.50;1.00;;;;;;5087147;28;20422;-63
2022/11/06 05:22:56;;;;;;;7.67;6.87;;;4.00;1.00;;;;;;5088696;28;20429;-62
2022/11/06 05:23:37;;;;;;;9.57;7.20;;;5.50;1.00;;;;;;5087275;28;20448;-62
2022/11/06 05:26:03;;;;;;;9.77;7.27;;;5.50;1.00;;;;;;5086204;28;20482;-63
2022/11/06 05:28:29;;;;;;;9.13;8.20;;;5.40;1.00;;;;;;5088574;28;20794;-62
2022/11/06 05:30:54;;;;;;;10.07;7.13;;;5.40;1.00;;;;;;5086447;28;20541;-63
2022/11/06 05:33:20;;;;;;;8.80;7.50;;;5.40;1.00;;;;;;5088179;28;20369;-63
2022/11/06 05:35:46;;;;;;;9.87;8.07;;;;;;;;;;5088445;28;20215;-63
2022/11/06 05:38:11;;;;;;;9.43;7.30;;;5.40;1.00;;;;;;5088378;28;20198;-62
2022/11/06 05:40:37;;;;;;;10.77;8.07;;;5.40;1.00;;;;;;5086397;28;20449;-64
2022/11/06 05:43:03;;;;;;;9.13;6.97;;;5.30;1.00;;;;;;5087122;28;20279;-63
2022/11/06 05:45:28;;;;;;;10.10;8.10;;;5.30;1.00;;;;;;5091819;28;20270;-63
2022/11/06 05:47:54;;;;;;;9.97;7.17;;;5.30;1.00;;;;;;5086018;28;20196;-63
2022/11/06 05:50:20;;;;;;;9.57;7.93;;;5.30;1.00;;;;;;5087548;28;20186;-63
2022/11/06 05:52:46;;;;;;;11.80;8.30;;;;;;;;;;5087548;28;20707;-61
2022/11/06 05:55:12;;;;;;;9.60;7.80;;;;;;;;;;5086751;28;20494;-63
2022/11/06 05:57:37;;;;;;;8.60;7.13;;;5.30;1.00;;;;;;5085434;28;20433;-62
2022/11/06 06:00:05;;;;;;;10.33;8.47;;;5.30;1.00;;;;;;5085412;28;20887;-63
2022/11/06 06:02:30;;;;;;;11.00;8.23;;;5.30;1.00;;;;;;5084627;28;20190;-63
2022/11/06 06:04:56;;;;;;;9.53;7.57;;;5.30;1.00;;;;;;5087903;28;20969;-63
2022/11/06 06:07:21;;;;;;;12.00;8.60;;;5.30;1.00;;;;;;5083649;28;20209;-63
2022/11/06 06:09:47;;;;;;;13.40;8.40;;;5.60;1.00;;;;;;5081037;28;20189;-62
2022/11/06 06:12:14;;;;;;;16.40;8.97;;;5.20;1.00;;;;;;5084803;28;20700;-63
2022/11/06 06:14:40;;;;;;;10.60;8.03;;;5.30;1.00;;;;;;5085356;28;20272;-63
2022/11/06 06:17:06;;;;;;;9.87;7.83;;;5.30;1.00;;;;;;5086625;28;20555;-62
2022/11/06 06:19:32;;;;;;;10.53;9.00;;;;;;;;;;5088392;28;20415;-64
2022/11/06 06:21:57;;;;;;;10.47;8.27;;;5.40;1.00;;;;;;5089883;28;20444;-65
2022/11/06 06:24:23;;;;;;;11.63;8.20;;;5.40;1.00;;;;;;5082844;28;20780;-65
2022/11/06 06:26:49;;;;;;;11.10;8.37;;;5.40;1.00;;;;;;5088177;28;20234;-64
2022/11/06 06:29:14;;;;;;;11.80;9.40;;;5.40;1.00;;;;;;5087012;28;20596;-62
2022/11/06 06:31:40;;;;;;;11.20;8.47;;;;;;;;;;5087738;28;20194;-64
2022/11/06 06:34:06;;;;;;;13.60;9.30;;;;;;;;;;5085011;28;20561;-63
2022/11/06 06:36:32;;;;;;;13.07;9.63;;;5.40;1.00;;;;;;5089971;28;20514;-63
2022/11/06 06:38:57;;;;;;;11.43;8.07;;;5.40;1.00;;;;;;5087874;28;20457;-63
2022/11/06 06:41:23;;;;;;;11.63;8.90;;;;;;;;;;5088009;28;20221;-63
2022/11/06 06:43:49;;;;;;;13.63;9.10;;;5.30;1.00;;;;;;5089319;28;20188;-63
2022/11/06 06:46:15;;;;;;;10.93;8.50;;;5.40;1.00;;;;;;5089297;28;20448;-63
2022/11/06 06:48:40;;;;;;;9.50;7.77;;;5.50;1.00;;;;;;5088398;28;20429;-62
2022/11/06 06:51:07;;;;;;;11.47;8.93;;;5.50;1.00;;;;;;5087374;28;20229;-63
2022/11/06 06:53:34;;;;;;;10.23;8.33;;;5.50;1.00;;;;;;5087735;28;20258;-63
2022/11/06 06:56:00;;;;;;;12.13;8.90;;;5.50;1.00;;;;;;5088941;28;20958;-64
2022/11/06 06:58:27;;;;;;;14.53;9.20;;;5.60;1.00;;;;;;5087577;28;20811;-63
2022/11/06 07:00:54;;;;;;;11.30;8.80;;;;;;;;;;5086495;28;20442;-64
2022/11/06 07:03:19;;;;;;;13.97;8.93;;;5.70;1.00;;;;;;5082766;28;20549;-64
2022/11/06 07:05:46;;;;;;;11.93;8.03;;;;;;;;;;5084361;28;21005;-63
2022/11/06 07:08:11;;;;;;;13.70;9.87;;;5.70;1.00;;;;;;5084352;28;20181;-64
2022/11/06 07:10:37;;;;;;;10.60;7.90;;;5.80;1.00;;;;;;5085031;28;20602;-65
2022/11/06 07:13:05;;;;;;;12.83;8.87;;;5.80;1.00;;;;;;5081838;28;20215;-65
2022/11/06 07:15:31;;;;;;;11.90;8.97;;;5.90;1.00;;;;;;5088449;28;20646;-64
2022/11/06 07:18:04;;;;;;;12.00;9.50;;;5.90;1.00;;;;;;5088433;28;20531;-65
2022/11/06 07:20:31;;;;;;;11.93;9.40;;;5.90;1.00;;;;;;5082476;28;20447;-64
2022/11/06 07:22:57;;;;;;;10.80;8.90;;;6.00;1.00;;;;;;5087737;28;20800;-65
2022/11/06 07:25:25;;;;;;;10.53;8.80;;;6.00;1.00;;;;;;5085572;28;20974;-64
2022/11/06 07:27:51;;;;;;;9.00;8.10;;;6.10;1.00;;;;;;5083762;28;20797;-63
2022/11/06 07:30:17;;;;;;;9.80;8.60;;;6.20;1.00;;;;;;5085122;28;20456;-65
2022/11/06 07:32:42;;;;;;;12.03;9.20;;;6.20;1.00;;;;;;5085363;28;20219;-64
2022/11/06 07:35:08;;;;;;;11.80;8.67;;;6.30;1.00;;;;;;5087904;28;20239;-65
2022/11/06 07:37:35;;;;;;;10.73;8.37;;;6.40;1.00;;;;;;5086814;28;20261;-65
2022/11/06 07:40:01;;;;;;;9.97;7.90;;;6.40;1.00;;;;;;5089138;28;20496;-65
2022/11/06 07:42:27;;;;;;;11.87;9.00;;;6.40;1.00;;;;;;5084649;28;20951;-66
2022/11/06 07:44:54;;;;;;;10.27;8.63;;;6.50;1.00;;;;;;5082856;28;20589;-66
2022/11/06 07:47:20;;;;;;;14.90;9.37;;;6.60;1.00;;;;;;5085957;28;20462;-65
2022/11/06 07:49:46;;;;;;;11.73;9.10;;;6.70;1.00;;;;;;5087588;28;20431;-66
2022/11/06 07:52:12;;;;;;;13.93;8.90;;;;;;;;;;5087267;28;20600;-66
2022/11/06 07:54:37;;;;;;;11.80;9.03;;;6.90;1.00;;;;;;5080064;28;20237;-64
2022/11/06 07:57:03;;;;;;;11.40;8.80;;;6.90;1.00;;;;;;5080340;28;20481;-65
2022/11/06 07:59:29;;;;;;;11.23;8.57;;;;;;;;;;5085067;28;20270;-65
2022/11/06 08:01:54;;;;;;;10.30;9.20;;;7.20;1.00;;;;;;5083483;28;20700;-63
2022/11/06 08:04:20;;;;;;;12.23;9.60;;;;;;;;;;5080748;28;20481;-65
2022/11/06 08:06:46;;;;;;;11.63;9.17;;;7.40;1.00;;;;;;5076469;28;20216;-65
2022/11/06 08:09:12;;;;;;;13.93;9.20;;;;;;;;;;5080622;28;20453;-65
2022/11/06 08:11:37;;;;;;;12.07;8.97;;;7.60;1.00;;;;;;5082404;28;20595;-66
2022/11/06 08:14:03;;;;;;;12.20;9.07;;;7.70;1.00;;;;;;5088221;28;20536;-65
2022/11/06 08:16:29;;;;;;;13.13;9.10;;;7.80;1.00;;;;;;5088338;28;20197;-65
2022/11/06 08:18:55;;;;;;;14.70;10.23;;;7.80;1.00;;;;;;5087576;28;20658;-64
2022/11/06 08:21:21;;;;;;;11.13;8.97;;;;;;;;;;5090769;28;20421;-66
2022/11/06 08:23:46;;;;;;;10.73;9.00;;;8.10;1.00;;;;;;5088153;28;20196;-65
2022/11/06 08:26:12;;;;;;;12.83;8.70;;;8.20;1.00;;;;;;5080016;28;20451;-65
2022/11/06 08:28:38;;;;;;;13.33;9.90;;;8.30;1.00;;;;;;5087558;28;20253;-65
2022/11/06 08:31:04;;;;;;;12.90;9.90;;;8.40;1.00;;;;;;5084091;28;20196;-66
2022/11/06 08:33:31;;;;;;;12.60;9.80;;;;;;;;;;5085711;28;20228;-66
2022/11/06 08:36:00;;;;;;;15.00;8.53;;;8.70;1.00;;;;;;5082968;28;20471;-66
2022/11/06 08:38:26;;;;;;;12.90;10.63;;;8.80;1.00;;;;;;5084053;28;20423;-64
2022/11/06 08:40:51;;;;;;;10.27;8.47;;;8.90;1.00;;;;;;5117712;27;20452;-65
2022/11/06 08:43:17;;;;;;;12.53;9.73;;;10.30;1.00;;;;;;5087217;28;20201;-65
2022/11/06 08:45:43;;;;;;;12.33;9.20;;;9.10;1.00;;;;;;5087142;28;20664;-64
2022/11/06 08:48:09;;;;;;;13.63;9.17;;;9.20;1.00;;;;;;5085548;28;20647;-65
2022/11/06 08:50:36;;;;;;;12.27;8.87;;;9.30;1.00;;;;;;5083384;28;20198;-64
2022/11/06 08:53:03;;;;;;;11.80;9.27;;;9.40;1.00;;;;;;5089950;28;20457;-66
2022/11/06 08:55:33;;;;;;;12.07;9.13;;;8.50;1.00;;;;;;5087043;28;20459;-66
2022/11/06 08:57:59;;;;;;;11.83;9.40;;;9.60;1.00;;;;;;5087042;28;20458;-66
2022/11/06 09:00:25;;;;;;;12.30;9.20;;;;;;;;;;5082092;28;20499;-64
2022/11/06 09:02:57;;;;;;;10.10;8.57;;;9.80;1.00;;;;;;5085817;28;20910;-66
2022/11/06 09:05:22;;;;;;;11.33;8.23;;;9.90;1.00;;;;;;5080450;28;20447;-64
2022/11/06 09:07:50;;;;;;;10.80;8.93;;;;;;;;;;5085316;28;20460;-64
2022/11/06 09:10:15;;;;;;;13.57;8.60;;;10.00;1.00;;;;;;5083815;28;20185;-64
2022/11/06 09:12:41;;;;;;;13.50;9.10;;;10.20;1.00;;;;;;5088283;28;20474;-64
2022/11/06 09:15:07;;;;;;;9.90;8.83;;;10.20;1.00;;;;;;5085429;28;20547;-64
2022/11/06 09:17:33;;;;;;;10.60;8.90;;;10.40;1.00;;;;;;5090921;28;20197;-65
2022/11/06 09:19:59;;;;;;;11.40;8.97;;;;;;;;;;5088422;28;20456;-65
2022/11/06 09:22:24;;;;;;;9.03;8.13;;;10.70;1.00;;;;;;5090981;28;20202;-66
2022/11/06 09:24:50;;;;;;;9.10;8.07;;;10.70;1.00;;;;;;5091751;28;20429;-64
2022/11/06 09:27:15;;;;;;;10.17;8.20;;;10.90;1.00;;;;;;5091157;28;20186;-64
2022/11/06 09:29:43;;;;;;;9.80;8.60;;;10.90;1.00;;;;;;5091561;28;20629;-64
2022/11/06 09:32:10;;;;;;;10.37;8.90;;;11.00;1.00;;;;;;5091597;28;20277;-64
2022/11/06 09:34:35;;;;;;;10.03;8.40;;;11.00;1.00;;;;;;5091665;28;20447;-64
2022/11/06 09:37:02;;;;;;;11.07;8.33;;;11.10;1.00;;;;;;5089660;28;20551;-65
2022/11/06 09:39:27;;;;;;;9.40;8.13;;;11.20;1.00;;;;;;5088944;28;20289;-64
2022/11/06 09:42:00;;;;;;;12.93;8.47;;;11.30;1.00;;;;;;5090866;28;20418;-64
2022/11/06 09:44:34;;;;;;;11.73;8.73;;;11.30;1.00;;;;;;5090580;28;20197;-65
2022/11/06 09:47:06;;;;;;;9.43;8.47;;;11.50;1.00;;;;;;5091074;28;20797;-64
2022/11/06 09:49:40;;;;;;;10.27;8.57;;;11.50;1.00;;;;;;5090628;28;21073;-64
2022/11/06 09:52:32;;;;;;;10.83;8.43;;;11.70;1.00;;;;;;5089806;28;20443;-64
2022/11/06 09:55:01;;;;;;;10.70;8.33;;;11.70;1.00;;;;;;5090280;28;20453;-65
2022/11/06 09:57:35;;;;;;;8.87;7.97;;;11.80;1.00;;;;;;5087972;28;20828;-64
2022/11/06 10:00:03;;;;;;;9.67;8.23;;;12.00;1.00;;;;;;5090482;28;20446;-63
2022/11/06 10:02:39;;;;;;;10.67;7.70;;;12.20;1.00;;;;;;5090444;28;20426;-64
2022/11/06 10:05:14;;;;;;;11.70;7.20;;;12.30;1.00;;;;;;5090540;28;20857;-64
2022/11/06 10:07:41;;;;;;;8.23;7.43;;;12.30;1.00;;;;;;5090385;28;20457;-64
2022/11/06 10:10:15;;;;;;;7.83;7.03;;;12.40;1.00;;;;;;5089346;28;20450;-64
2022/11/06 10:13:02;;;;;;;8.33;7.50;;;12.50;1.00;;;;;;5089714;28;20462;-65
2022/11/06 10:15:38;;;;;;;9.30;6.90;;;12.60;1.00;;;;;;5088671;28;20438;-65
2022/11/06 10:18:17;;;;;;;8.70;7.40;;;12.60;1.00;;;;;;5090075;28;20413;-64
2022/11/06 10:20:52;;;;;;;9.80;6.53;;;12.60;1.00;;;;;;5088834;28;20409;-64
2022/11/06 10:23:43;;;;;;;9.03;7.30;;;12.70;1.00;;;;;;5090130;28;20538;-64
2022/11/06 10:26:13;;;;;;;6.90;6.20;;;12.90;1.00;;;;;;5090157;28;20527;-65
2022/11/06 10:28:51;;;;;;;8.23;6.47;;;12.80;1.00;;;;;;5087460;28;20467;-64
2022/11/06 10:31:37;;;;;;;7.60;6.43;;;12.90;1.00;;;;;;5090569;28;20405;-65
2022/11/06 10:34:07;;;;;;;5.83;5.20;;;12.90;1.00;;;;;;5089608;28;20492;-64
2022/11/06 10:36:49;;;;;;;7.20;5.80;;;13.00;1.00;;;;;;5089534;28;20500;-64
2022/11/06 10:39:20;;;;;;;8.77;6.07;;;13.20;1.00;;;;;;5089803;28;20943;-64
2022/11/06 10:41:54;;;;;;;6.17;5.60;;;13.30;1.00;;;;;;5090309;28;20629;-65
2022/11/06 10:44:45;;;;;;;5.93;5.03;;;13.30;1.00;;;;;;5090672;28;20451;-65
2022/11/06 10:47:19;;;;;;;6.70;5.97;;;13.30;1.00;;;;;;5068446;28;20444;-65
2022/11/06 10:49:52;;;;;;;5.93;5.33;;;13.50;1.00;;;;;;5090342;28;20443;-64
2022/11/06 10:52:26;;;;;;;6.97;5.93;;;13.60;1.00;;;;;;5090405;28;20462;-63
2022/11/06 10:55:21;;;;;;;5.97;5.37;;;13.60;1.00;;;;;;5090346;28;20517;-63
2022/11/06 10:57:56;;;;;;;5.90;5.30;;;13.70;1.00;;;;;;5088602;28;20432;-64
2022/11/06 11:00:22;;;;;;;5.93;4.63;;;14.00;1.00;;;;;;5090015;28;20981;-65
2022/11/06 11:02:53;;;;;;;5.00;4.50;;;13.80;1.00;;;;;;5090004;28;20440;-65
2022/11/06 11:05:21;;;;;;;5.97;4.70;;;14.00;1.00;;;;;;5089607;28;20264;-63
2022/11/06 11:07:48;;;;;;;4.70;4.30;;;14.10;1.00;;;;;;5089751;28;20448;-65
2022/11/06 11:10:22;;;;;;;4.40;4.00;;;14.00;1.00;;;;;;5089388;28;20518;-64
2022/11/06 11:12:52;;;;;;;5.20;4.70;;;14.00;1.00;;;;;;5089103;28;20462;-65
2022/11/06 11:15:23;;;;;;;5.40;4.90;;;14.10;1.00;;;;;;5089358;28;20851;-65
2022/11/06 11:18:17;;;;;;;6.30;3.70;;;14.20;1.00;;;;;;5087971;28;20437;-65
2022/11/06 11:20:48;;;;;;;3.47;3.17;;;14.50;1.00;;;;;;5089404;28;20426;-64
2022/11/06 11:23:21;;;;;;;5.70;3.93;;;14.50;1.00;;;;;;5088904;28;20447;-64
2022/11/06 11:25:49;;;;;;;6.13;3.63;;;14.70;1.00;;;;;;5089283;28;20605;-63
2022/11/06 11:28:35;;;;;;;6.50;5.27;;;14.70;1.00;;;;;;5089158;28;20518;-63
2022/11/06 11:31:04;;;;;;;4.77;3.27;;;14.50;1.00;;;;;;5088363;28;20449;-64
2022/11/06 11:33:31;;;;;;;5.80;2.97;;;14.50;1.00;;;;;;5088966;28;20453;-64
2022/11/06 11:35:56;;;;;;;2.57;2.37;;;14.80;1.00;;;;;;5089260;28;20827;-64
2022/11/06 11:38:22;;;;;;;3.13;2.70;;;14.80;1.00;;;;;;5087696;28;20422;-66
2022/11/06 11:40:50;;;;;;;3.47;2.83;;;14.70;1.00;;;;;;5089123;28;20190;-65
2022/11/06 11:43:25;;;;;;;3.20;2.90;;;14.60;1.00;;;;;;5086518;28;20434;-64
2022/11/06 11:46:06;;;;;;;3.63;2.80;;;14.70;1.00;;;;;;5091799;28;20439;-64
2022/11/06 11:49:04;;;;;;;6.00;2.87;;;14.70;1.00;;;;;;5093053;28;20449;-65
2022/11/06 11:51:43;;;;;;;3.93;2.80;;;14.60;1.00;;;;;;5080669;28;20463;-65
2022/11/06 11:54:11;;;;;;;5.23;3.40;;;14.50;1.00;;;;;;5091166;28;20862;-64
2022/11/06 11:56:59;;;;;;;3.17;2.87;;;14.50;1.00;;;;;;5092282;28;20530;-65
2022/11/06 11:59:43;;;;;;;4.73;3.07;;;14.70;1.00;;;;;;5090806;28;20404;-65
2022/11/06 12:02:23;;;;;;;3.23;2.93;;;14.70;1.00;;;;;;5092423;28;20425;-64
2022/11/06 12:04:59;;;;;;;2.60;2.37;;;14.70;1.00;;;;;;5092625;28;20451;-63
2022/11/06 12:07:42;;;;;;;2.30;2.10;;;14.90;1.00;;;;;;5090514;28;20440;-63
2022/11/06 12:10:27;;;;;;;2.80;2.30;;;15.00;1.00;;;;;;5092206;28;20454;-65
2022/11/06 12:12:54;;;;;;;3.10;2.80;;;15.00;1.00;;;;;;5092801;28;20467;-64
2022/11/06 12:15:25;;;;;;;3.00;2.60;;;14.90;1.00;;;;;;5092204;28;20495;-63
2022/11/06 12:17:53;;;;;;;2.80;2.60;;;15.20;1.00;;;;;;5092077;28;20463;-64
2022/11/06 12:20:41;;;;;;;2.90;2.60;;;15.20;99.90;;;;;;5092793;28;20670;-64
2022/11/06 12:23:17;;;;;;;3.20;2.37;;;15.10;99.90;;;;;;5089837;28;20412;-64
2022/11/06 12:25:54;;;;;;;5.43;2.93;;;15.00;99.90;;;;;;5091950;28;20476;-64
2022/11/06 12:28:22;;;;;;;2.73;2.30;;;14.90;99.90;;;;;;5092653;28;20917;-64
2022/11/06 12:31:00;;;;;;;4.00;2.23;;;14.80;99.90;;;;;;5092285;28;20454;-64
2022/11/06 12:33:27;;;;;;;3.27;2.40;;;15.00;99.90;;;;;;5092195;28;20850;-64
2022/11/06 12:36:05;;;;;;;2.53;2.00;;;15.10;99.90;;;;;;5091944;28;20921;-64
2022/11/06 12:38:47;;;;;;;2.30;2.10;;;15.20;99.90;;;;;;5092285;28;20493;-64
2022/11/06 12:41:20;;;;;;;3.00;2.13;;;15.10;99.90;;;;;;5088509;28;20518;-64
2022/11/06 12:43:48;;;;;;;3.00;2.10;;;15.10;99.90;;;;;;5092143;28;20488;-64
2022/11/06 12:46:20;;;;;;;6.00;2.83;;;15.00;99.90;;;;;;5088547;28;20443;-64
2022/11/06 12:48:46;;;;;;;3.70;2.80;;;14.90;99.90;;;;;;5091997;28;20852;-63
2022/11/06 12:51:43;;;;;;;2.63;2.43;;;14.80;99.90;;;;;;5091844;28;20492;-64
2022/11/06 12:54:30;;;;;;;5.00;2.53;;;14.90;99.90;;;;;;5091591;28;20479;-64
2022/11/06 12:57:14;;;;;;;3.53;2.70;;;14.80;99.90;;;;;;5090826;28;20450;-64
2022/11/06 13:00:03;;;;;;;3.80;2.50;;;14.80;99.90;;;;;;5091653;28;20443;-64
2022/11/06 13:02:49;;;;;;;2.50;1.83;;;14.90;99.90;;;;;;5089358;28;20445;-64
2022/11/06 13:05:29;;;;;;;3.00;2.60;;;14.90;99.90;;;;;;5091382;28;20935;-64
2022/11/06 13:07:55;;;;;;;3.90;3.07;;;14.90;99.90;;;;;;5091595;28;20409;-64
2022/11/06 13:10:35;;;;;;;5.03;4.03;;;14.80;99.90;;;;;;5092040;28;20499;-65
2022/11/06 13:13:03;;;;;;;3.23;2.70;;;14.80;99.90;;;;;;5091255;28;20197;-64
2022/11/06 13:15:48;;;;;;;5.60;3.10;;;14.80;99.90;;;;;;5092144;28;20432;-64
2022/11/06 13:18:17;;;;;;;4.10;2.57;;;14.80;99.90;;;;;;5091518;28;20806;-64
2022/11/06 13:20:54;;;;;;;3.47;3.07;;;14.70;99.90;;;;;;5091862;28;20898;-64
2022/11/06 13:23:26;;;;;;;4.23;2.97;;;14.60;99.90;;;;;;5091217;28;20487;-64
2022/11/06 13:26:05;;;;;;;6.17;3.40;;;14.50;99.90;;;;;;5091655;28;20555;-64
2022/11/06 13:28:39;;;;;;;5.50;2.77;;;14.60;99.90;;;;;;5123257;27;20460;-63
2022/11/06 13:31:08;;;;;;;3.73;2.53;;;14.50;99.90;;;;;;5090784;28;20447;-64
2022/11/06 13:33:52;;;;;;;4.33;2.67;;;14.20;99.90;;;;;;5091552;28;20988;-64
2022/11/06 13:36:18;;;;;;;4.30;3.00;;;14.20;99.90;;;;;;5090991;28;20759;-64
2022/11/06 13:38:53;;;;;;;4.33;2.73;;;14.50;99.90;;;;;;5091188;28;20539;-64
2022/11/06 13:41:28;;;;;;;3.97;3.20;;;14.50;99.90;;;;;;5086697;28;21140;-64